createdAt,value
2018-02-21T00:02:02.983Z,96985.30
2018-02-21T00:04:29.025Z,96991.95
2018-02-21T00:06:55.109Z,96989.43
2018-02-21T00:09:21.167Z,96989.53
2018-02-21T00:11:47.206Z,96987.12
2018-02-21T00:14:13.267Z,96986.38
2018-02-21T00:16:39.370Z,96987.97
2018-02-21T00:19:05.611Z,96980.38
2018-02-21T00:21:31.665Z,96983.45
2018-02-21T00:23:57.701Z,96981.88
2018-02-21T00:26:23.803Z,96979.18
2018-02-21T00:28:49.838Z,96986.15
2018-02-21T00:31:15.838Z,96989.23
2018-02-21T00:33:41.855Z,96984.59
2018-02-21T00:36:07.895Z,96988.34
2018-02-21T00:38:33.981Z,96995.04
2018-02-21T00:41:00.042Z,96988.39
2018-02-21T00:43:26.069Z,96990.05
2018-02-21T00:45:52.685Z,96995.22
2018-02-21T00:48:19.616Z,96996.31
2018-02-21T00:50:45.995Z,96998.07
2018-02-21T00:53:12.020Z,96997.20
2018-02-21T00:55:38.058Z,96991.30
2018-02-21T00:58:04.094Z,96993.71
2018-02-21T01:00:30.429Z,96990.03
2018-02-21T01:02:56.546Z,96998.71
2018-02-21T01:05:22.550Z,96997.64
2018-02-21T01:07:48.562Z,96994.72
2018-02-21T01:10:14.630Z,97002.37
2018-02-21T01:12:40.695Z,96999.58
2018-02-21T01:15:06.705Z,96999.58
2018-02-21T01:17:32.718Z,96997.63
2018-02-21T01:19:58.790Z,96998.83
2018-02-21T01:22:24.815Z,96994.61
2018-02-21T01:24:50.851Z,97001.88
2018-02-21T01:27:16.880Z,96998.66
2018-02-21T01:29:42.916Z,96992.53
2018-02-21T01:32:08.938Z,96992.25
2018-02-21T01:34:34.920Z,96993.32
2018-02-21T01:37:01.024Z,96993.94
2018-02-21T01:39:27.053Z,97002.48
2018-02-21T01:41:53.124Z,96990.90
2018-02-21T01:44:19.128Z,96996.13
2018-02-21T01:46:45.144Z,96995.40
2018-02-21T01:49:11.193Z,96990.53
2018-02-21T01:51:37.276Z,96988.63
2018-02-21T01:54:03.287Z,96992.61
2018-02-21T01:56:29.381Z,96992.92
2018-02-21T01:58:55.476Z,96989.55
2018-02-21T02:01:21.500Z,96987.38
2018-02-21T02:03:47.517Z,96989.58
2018-02-21T02:06:13.560Z,96991.83
2018-02-21T02:08:39.646Z,96985.91
2018-02-21T02:11:05.735Z,96993.28
2018-02-21T02:13:31.774Z,96992.23
2018-02-21T02:15:57.769Z,96991.80
2018-02-21T02:18:23.798Z,97000.64
2018-02-21T02:20:49.806Z,96997.46
2018-02-21T02:23:15.826Z,97004.31
2018-02-21T02:25:41.834Z,96999.42
2018-02-21T02:28:07.865Z,97002.64
2018-02-21T02:30:33.852Z,97004.83
2018-02-21T02:32:59.867Z,97006.69
2018-02-21T02:35:25.841Z,97000.38
2018-02-21T02:37:51.842Z,97002.19
2018-02-21T02:40:18.122Z,97005.44
2018-02-21T02:42:43.903Z,97007.92
2018-02-21T02:45:09.985Z,97013.07
2018-02-21T02:47:36.053Z,97015.21
2018-02-21T02:50:02.726Z,97009.86
2018-02-21T02:52:28.795Z,97010.64
2018-02-21T02:54:54.800Z,97015.64
2018-02-21T02:57:20.821Z,97015.88
2018-02-21T02:59:46.824Z,97010.88
2018-02-21T03:02:12.943Z,97013.98
2018-02-21T03:04:38.985Z,97014.31
2018-02-21T03:07:05.037Z,97023.42
2018-02-21T03:09:31.046Z,97021.17
2018-02-21T03:11:57.237Z,97016.50
2018-02-21T03:14:23.260Z,97025.39
2018-02-21T03:16:49.282Z,97030.50
2018-02-21T03:19:15.342Z,97028.61
2018-02-21T03:21:41.380Z,97023.03
2018-02-21T03:24:07.373Z,97031.70
2018-02-21T03:26:33.391Z,97028.56
2018-02-21T03:28:59.436Z,97035.08
2018-02-21T03:31:25.495Z,97032.99
2018-02-21T03:33:51.501Z,97033.22
2018-02-21T03:36:17.545Z,97032.72
2018-02-21T03:38:43.596Z,97037.08
2018-02-21T03:41:09.677Z,97036.25
2018-02-21T03:43:35.725Z,97039.97
2018-02-21T03:46:01.765Z,97041.88
2018-02-21T03:48:27.856Z,97034.85
2018-02-21T03:50:53.926Z,97040.64
2018-02-21T03:53:19.941Z,97038.05
2018-02-21T03:55:45.909Z,97042.03
2018-02-21T03:58:12.017Z,97041.53
2018-02-21T04:00:38.094Z,97045.83
2018-02-21T04:03:04.224Z,97048.00
2018-02-21T04:05:30.241Z,97048.95
2018-02-21T04:07:56.246Z,97049.80
2018-02-21T04:10:22.344Z,97044.87
2018-02-21T04:12:48.333Z,97048.01
2018-02-21T04:15:14.486Z,97052.55
2018-02-21T04:17:40.507Z,97054.02
2018-02-21T04:20:06.737Z,97060.20
2018-02-21T04:22:32.857Z,97063.80
2018-02-21T04:24:58.901Z,97068.23
2018-02-21T04:27:24.930Z,97064.09
2018-02-21T04:29:50.944Z,97070.60
2018-02-21T04:32:17.023Z,97073.78
2018-02-21T04:34:43.091Z,97072.38
2018-02-21T04:37:09.133Z,97079.19
2018-02-21T04:39:35.197Z,97086.07
2018-02-21T04:42:01.222Z,97081.20
2018-02-21T04:44:27.250Z,97089.46
2018-02-21T04:46:53.274Z,97087.77
2018-02-21T04:49:19.329Z,97086.77
2018-02-21T04:51:45.321Z,97089.11
2018-02-21T04:54:12.016Z,97087.83
2018-02-21T04:56:44.278Z,97080.63
2018-02-21T04:59:17.212Z,97085.67
2018-02-21T05:01:43.266Z,97084.31
2018-02-21T05:04:09.291Z,97084.53
2018-02-21T05:06:35.402Z,97085.95
2018-02-21T05:09:01.490Z,97088.49
2018-02-21T05:11:27.545Z,97091.17
2018-02-21T05:13:53.561Z,97087.68
2018-02-21T05:16:19.634Z,97092.47
2018-02-21T05:18:45.672Z,97094.70
2018-02-21T05:21:11.759Z,97095.64
2018-02-21T05:23:37.793Z,97097.03
2018-02-21T05:26:03.826Z,97094.50
2018-02-21T05:28:29.893Z,97103.05
2018-02-21T05:30:55.851Z,97100.80
2018-02-21T05:33:21.902Z,97095.17
2018-02-21T05:35:47.954Z,97095.89
2018-02-21T05:38:14.045Z,97100.67
2018-02-21T05:40:40.066Z,97099.57
2018-02-21T05:43:06.115Z,97098.42
2018-02-21T05:45:32.197Z,97099.27
2018-02-21T05:47:58.221Z,97111.16
2018-02-21T05:50:24.278Z,97112.96
2018-02-21T05:52:50.307Z,97104.53
2018-02-21T05:55:16.342Z,97107.58
2018-02-21T05:57:42.345Z,97112.06
2018-02-21T06:00:08.452Z,97115.63
2018-02-21T06:02:34.573Z,97115.33
2018-02-21T06:05:00.617Z,97119.13
2018-02-21T06:07:26.644Z,97124.90
2018-02-21T06:09:52.689Z,97123.32
2018-02-21T06:12:18.703Z,97120.81
2018-02-21T06:14:44.758Z,97119.09
2018-02-21T06:17:10.744Z,97119.64
2018-02-21T06:19:36.799Z,97121.17
2018-02-21T06:22:02.942Z,97118.38
2018-02-21T06:24:28.929Z,97116.52
2018-02-21T06:26:54.981Z,97113.56
2018-02-21T06:29:20.986Z,97116.29
2018-02-21T06:31:47.006Z,97115.47
2018-02-21T06:34:13.013Z,97113.00
2018-02-21T06:36:39.058Z,97113.50
2018-02-21T06:39:05.088Z,97115.68
2018-02-21T06:41:31.134Z,97116.25
2018-02-21T06:43:57.191Z,97113.49
2018-02-21T06:46:23.201Z,97115.56
2018-02-21T06:48:49.260Z,97118.66
2018-02-21T06:51:15.277Z,97120.34
2018-02-21T06:53:41.321Z,97124.30
2018-02-21T06:56:07.483Z,97120.31
2018-02-21T06:58:33.490Z,97116.95
2018-02-21T07:00:59.609Z,97116.95
2018-02-21T07:03:25.623Z,97114.23
2018-02-21T07:05:51.624Z,97114.54
2018-02-21T07:08:17.685Z,97104.78
2018-02-21T07:10:43.701Z,97121.28
2018-02-21T07:13:10.125Z,97124.72
2018-02-21T07:15:36.189Z,97121.85
2018-02-21T07:18:02.317Z,97126.55
2018-02-21T07:20:28.334Z,97125.81
2018-02-21T07:22:54.372Z,97127.09
2018-02-21T07:25:20.437Z,97130.67
2018-02-21T07:27:46.541Z,97128.30
2018-02-21T07:30:12.568Z,97135.61
2018-02-21T07:32:38.557Z,97138.70
2018-02-21T07:35:04.569Z,97136.03
2018-02-21T07:37:30.718Z,97142.16
2018-02-21T07:39:56.781Z,97143.17
2018-02-21T07:42:22.825Z,97141.56
2018-02-21T07:44:48.880Z,97146.42
2018-02-21T07:47:14.944Z,97148.13
2018-02-21T07:49:40.978Z,97143.64
2018-02-21T07:52:07.013Z,97145.73
2018-02-21T07:54:33.041Z,97142.20
2018-02-21T07:56:59.041Z,97141.13
2018-02-21T07:59:25.142Z,97143.95
2018-02-21T08:01:51.175Z,97141.24
2018-02-21T08:04:17.219Z,97138.27
2018-02-21T08:06:43.260Z,97143.20
2018-02-21T08:09:09.233Z,97143.66
2018-02-21T08:11:35.238Z,97143.37
2018-02-21T08:14:01.246Z,97135.59
2018-02-21T08:16:27.305Z,97141.14
2018-02-21T08:18:53.382Z,97140.41
2018-02-21T08:21:19.448Z,97144.82
2018-02-21T08:23:45.487Z,97144.48
2018-02-21T08:26:11.517Z,97134.38
2018-02-21T08:28:37.517Z,97141.47
2018-02-21T08:31:03.616Z,97142.06
2018-02-21T08:33:29.624Z,97131.72
2018-02-21T08:35:55.673Z,97132.85
2018-02-21T08:38:21.682Z,97134.42
2018-02-21T08:40:47.676Z,97138.61
2018-02-21T08:43:13.726Z,97138.12
2018-02-21T08:45:39.730Z,97141.66
2018-02-21T08:48:05.834Z,97148.06
2018-02-21T08:50:31.852Z,97147.81
2018-02-21T08:52:57.802Z,97149.63
2018-02-21T08:55:23.840Z,97146.89
2018-02-21T08:57:49.912Z,97145.08
2018-02-21T09:00:15.965Z,97138.70
2018-02-21T09:02:41.981Z,97134.39
2018-02-21T09:05:08.022Z,97132.77
2018-02-21T09:07:34.035Z,97131.25
2018-02-21T09:10:00.012Z,97125.05
2018-02-21T09:12:26.048Z,97124.84
2018-02-21T09:14:52.049Z,97129.95
2018-02-21T09:17:18.118Z,97132.19
2018-02-21T09:19:44.154Z,97138.19
2018-02-21T09:22:10.198Z,97144.43
2018-02-21T09:24:36.181Z,97144.13
2018-02-21T09:27:02.293Z,97142.47
2018-02-21T09:29:28.366Z,97140.54
2018-02-21T09:31:54.367Z,97140.19
2018-02-21T09:34:20.433Z,97136.63
2018-02-21T09:36:46.468Z,97133.37
2018-02-21T09:39:12.505Z,97133.34
2018-02-21T09:41:38.485Z,97131.73
2018-02-21T09:44:04.580Z,97135.81
2018-02-21T09:46:30.606Z,97141.16
2018-02-21T09:48:56.676Z,97144.08
2018-02-21T09:51:22.678Z,97140.97
2018-02-21T09:53:48.688Z,97147.16
2018-02-21T09:56:14.725Z,97144.07
2018-02-21T09:58:40.734Z,97143.25
2018-02-21T10:01:06.704Z,97146.73
2018-02-21T10:03:32.741Z,97152.44
2018-02-21T10:05:58.747Z,97151.43
2018-02-21T10:08:24.758Z,97155.42
2018-02-21T10:10:50.888Z,97148.92
2018-02-21T10:13:17.000Z,97157.05
2018-02-21T10:15:43.028Z,97160.95
2018-02-21T10:18:09.072Z,97166.80
2018-02-21T10:20:35.128Z,97166.39
2018-02-21T10:23:01.032Z,97160.91
2018-02-21T10:25:27.062Z,97161.89
2018-02-21T10:27:53.061Z,97163.06
2018-02-21T10:30:19.041Z,97166.28
2018-02-21T10:32:45.092Z,97165.30
2018-02-21T10:35:11.145Z,97164.32
2018-02-21T10:37:37.118Z,97162.31
2018-02-21T10:40:03.485Z,97165.19
2018-02-21T10:42:29.536Z,97155.52
2018-02-21T10:44:55.612Z,97153.59
2018-02-21T10:47:21.642Z,97155.08
2018-02-21T10:49:47.718Z,97147.10
2018-02-21T10:52:13.719Z,97147.12
2018-02-21T10:54:39.741Z,97148.17
2018-02-21T10:57:05.765Z,97144.59
2018-02-21T10:59:31.835Z,97147.55
2018-02-21T11:01:57.869Z,97151.45
2018-02-21T11:04:23.874Z,97142.41
2018-02-21T11:06:49.890Z,97147.50
2018-02-21T11:09:15.899Z,97141.77
2018-02-21T11:11:41.899Z,97147.84
2018-02-21T11:14:07.920Z,97136.03
2018-02-21T11:16:33.973Z,97140.52
2018-02-21T11:18:59.953Z,97139.34
2018-02-21T11:21:25.950Z,97135.03
2018-02-21T11:23:52.013Z,97138.77
2018-02-21T11:26:18.026Z,97139.44
2018-02-21T11:28:44.023Z,97138.52
2018-02-21T11:31:10.040Z,97139.78
2018-02-21T11:33:36.037Z,97134.08
2018-02-21T11:36:02.092Z,97130.83
2018-02-21T11:38:28.094Z,97129.41
2018-02-21T11:40:54.141Z,97126.78
2018-02-21T11:43:20.134Z,97129.41
2018-02-21T11:45:46.180Z,97132.06
2018-02-21T11:48:12.201Z,97129.93
2018-02-21T11:50:38.181Z,97130.52
2018-02-21T11:53:04.198Z,97126.16
2018-02-21T11:55:30.197Z,97122.77
2018-02-21T11:57:56.234Z,97124.28
2018-02-21T12:00:22.200Z,97118.94
2018-02-21T12:02:48.257Z,97120.25
2018-02-21T12:05:14.330Z,97118.97
2018-02-21T12:07:40.358Z,97118.33
2018-02-21T12:10:06.409Z,97117.84
2018-02-21T12:12:32.440Z,97116.30
2018-02-21T12:14:58.476Z,97108.61
2018-02-21T12:17:24.517Z,97105.48
2018-02-21T12:19:50.548Z,97103.65
2018-02-21T12:22:16.580Z,97100.65
2018-02-21T12:24:42.684Z,97095.45
2018-02-21T12:27:08.739Z,97096.87
2018-02-21T12:29:34.839Z,97095.93
2018-02-21T12:32:12.666Z,97092.62
2018-02-21T12:34:38.677Z,97094.02
2018-02-21T12:37:04.705Z,97095.10
2018-02-21T12:39:34.580Z,97087.64
2018-02-21T12:42:00.728Z,97083.02
2018-02-21T12:44:26.682Z,97079.14
2018-02-21T12:46:52.682Z,97074.58
2018-02-21T12:49:18.744Z,97077.19
2018-02-21T12:51:44.797Z,97074.28
2018-02-21T12:54:10.862Z,97076.30
2018-02-21T12:56:36.921Z,97078.67
2018-02-21T12:59:02.990Z,97066.78
2018-02-21T13:01:29.014Z,97060.97
2018-02-21T13:03:55.037Z,97059.84
2018-02-21T13:06:21.082Z,97052.16
2018-02-21T13:08:47.076Z,97049.88
2018-02-21T13:11:13.096Z,97044.35
2018-02-21T13:13:39.114Z,97041.93
2018-02-21T13:16:05.168Z,97042.23
2018-02-21T13:18:31.185Z,97033.61
2018-02-21T13:20:57.190Z,97032.27
2018-02-21T13:23:23.230Z,97036.59
2018-02-21T13:25:49.223Z,97029.51
2018-02-21T13:28:15.265Z,97033.77
2018-02-21T13:30:41.339Z,97033.26
2018-02-21T13:33:07.354Z,97026.02
2018-02-21T13:35:33.329Z,97023.29
2018-02-21T13:37:59.618Z,97028.78
2018-02-21T13:40:25.641Z,97020.31
2018-02-21T13:42:51.628Z,97016.71
2018-02-21T13:45:17.629Z,97013.31
2018-02-21T13:47:43.729Z,97016.92
2018-02-21T13:50:09.713Z,97010.50
2018-02-21T13:52:35.765Z,97005.95
2018-02-21T13:55:01.765Z,97012.59
2018-02-21T13:57:27.722Z,97003.66
2018-02-21T13:59:53.750Z,97011.57
2018-02-21T14:02:19.721Z,97004.52
2018-02-21T14:04:45.956Z,96994.64
2018-02-21T14:07:11.968Z,97002.28
2018-02-21T14:09:38.025Z,97005.95
2018-02-21T14:12:04.041Z,97000.55
2018-02-21T14:14:30.102Z,97005.16
2018-02-21T14:16:56.154Z,96998.77
2018-02-21T14:19:22.146Z,96998.16
2018-02-21T14:21:48.165Z,97004.02
2018-02-21T14:24:14.308Z,97000.92
2018-02-21T14:26:40.372Z,97004.08
2018-02-21T14:29:06.517Z,97012.98
2018-02-21T14:31:32.580Z,97002.77
2018-02-21T14:33:58.618Z,97010.80
2018-02-21T14:36:24.604Z,96999.78
2018-02-21T14:38:50.625Z,97001.41
2018-02-21T14:41:16.593Z,96997.42
2018-02-21T14:43:42.643Z,96993.88
2018-02-21T14:46:08.665Z,96996.61
2018-02-21T14:48:34.673Z,96996.86
2018-02-21T14:51:00.721Z,96992.02
2018-02-21T14:53:26.799Z,96997.20
2018-02-21T14:55:53.118Z,96997.67
2018-02-21T14:58:19.151Z,96999.66
2018-02-21T15:00:45.206Z,96998.09
2018-02-21T15:03:11.221Z,97002.94
2018-02-21T15:05:37.270Z,96998.98
2018-02-21T15:08:03.269Z,96990.72
2018-02-21T15:10:29.320Z,96989.78
2018-02-21T15:12:55.373Z,96998.16
2018-02-21T15:15:21.516Z,97002.55
2018-02-21T15:17:47.566Z,96998.37
2018-02-21T15:20:13.572Z,97012.55
2018-02-21T15:22:39.936Z,97011.68
2018-02-21T15:25:05.905Z,97022.69
2018-02-21T15:27:31.983Z,97021.52
2018-02-21T15:29:58.037Z,97021.33
2018-02-21T15:32:24.445Z,97031.57
2018-02-21T15:34:50.954Z,97032.74
2018-02-21T15:37:17.070Z,97027.47
2018-02-21T15:39:43.118Z,97037.69
2018-02-21T15:42:09.128Z,97044.14
2018-02-21T15:44:35.117Z,97039.13
2018-02-21T15:47:01.214Z,97041.95
2018-02-21T15:49:27.216Z,97041.00
2018-02-21T15:51:53.222Z,97043.87
2018-02-21T15:54:19.285Z,97054.19
2018-02-21T15:56:45.319Z,97047.66
2018-02-21T15:59:11.422Z,97048.63
2018-02-21T16:01:37.444Z,97052.57
2018-02-21T16:04:03.504Z,97055.55
2018-02-21T16:06:29.553Z,97058.88
2018-02-21T16:08:55.701Z,97048.92
2018-02-21T16:11:21.714Z,97060.06
2018-02-21T16:13:47.796Z,97063.05
2018-02-21T16:16:13.863Z,97062.56
2018-02-21T16:18:39.958Z,97069.73
2018-02-21T16:21:05.943Z,97068.91
2018-02-21T16:23:31.962Z,97067.41
2018-02-21T16:25:58.017Z,97075.83
2018-02-21T16:28:24.035Z,97077.11
2018-02-21T16:30:50.105Z,97078.93
2018-02-21T16:36:22.500Z,97082.45
2018-02-21T16:38:48.525Z,97083.36
2018-02-21T16:41:14.576Z,97096.77
2018-02-21T16:43:40.670Z,97088.43
2018-02-21T16:46:06.788Z,97091.61
2018-02-21T16:48:32.870Z,97087.52
2018-02-21T16:50:58.993Z,97097.64
2018-02-21T16:53:25.646Z,97096.34
2018-02-21T16:55:51.721Z,97105.95
2018-02-21T16:58:18.028Z,97105.37
2018-02-21T17:00:44.158Z,97116.58
2018-02-21T17:03:10.186Z,97121.16
2018-02-21T17:05:36.262Z,97123.30
2018-02-21T17:08:02.332Z,97127.77
2018-02-21T17:10:28.386Z,97134.66
2018-02-21T17:12:54.511Z,97133.20
2018-02-21T17:15:45.403Z,97136.42
2018-02-21T17:18:13.147Z,97136.30
2018-02-21T17:20:49.920Z,97135.11
2018-02-21T17:23:15.994Z,97142.18
2018-02-21T17:25:41.994Z,97156.70
2018-02-21T17:28:08.086Z,97160.88
2018-02-21T17:30:49.043Z,97170.59
2018-02-21T17:33:15.783Z,97169.02
2018-02-21T17:35:41.999Z,97166.08
2018-02-21T17:38:08.158Z,97170.21
2018-02-21T17:40:34.245Z,97174.92
2018-02-21T17:43:00.264Z,97183.63
2018-02-21T17:45:26.282Z,97185.04
2018-02-21T17:47:52.338Z,97180.59
2018-02-21T17:50:18.407Z,97186.86
2018-02-21T17:52:44.470Z,97190.59
2018-02-21T17:55:10.561Z,97191.45
2018-02-21T17:57:37.216Z,97200.10
2018-02-21T18:00:04.372Z,97201.20
2018-02-21T18:02:30.475Z,97204.50
2018-02-21T18:04:56.626Z,97203.75
2018-02-21T18:07:22.678Z,97198.95
2018-02-21T18:09:48.788Z,97205.44
2018-02-21T18:12:15.041Z,97201.83
2018-02-21T18:14:41.168Z,97206.39
2018-02-21T18:17:07.261Z,97202.50
2018-02-21T18:19:33.298Z,97205.86
2018-02-21T18:21:59.389Z,97214.27
2018-02-21T18:24:25.567Z,97204.01
2018-02-21T18:26:51.699Z,97212.19
2018-02-21T18:29:17.680Z,97210.66
2018-02-21T18:31:43.720Z,97213.13
2018-02-21T18:34:09.823Z,97214.36
2018-02-21T18:36:35.889Z,97218.51
2018-02-21T18:39:01.990Z,97210.38
2018-02-21T18:41:28.321Z,97216.70
2018-02-21T18:43:54.344Z,97222.67
2018-02-21T18:46:20.433Z,97218.45
2018-02-21T18:48:46.507Z,97223.97
2018-02-21T18:51:12.523Z,97229.67
2018-02-21T18:53:38.552Z,97233.33
2018-02-21T18:56:04.634Z,97228.90
2018-02-21T18:58:30.622Z,97215.30
2018-02-21T19:00:56.729Z,97222.30
2018-02-21T19:03:23.005Z,97222.37
2018-02-21T19:05:49.046Z,97215.75
2018-02-21T19:08:15.047Z,97220.44
2018-02-21T19:10:41.126Z,97219.91
2018-02-21T19:13:07.261Z,97218.02
2018-02-21T19:15:33.418Z,97223.27
2018-02-21T19:17:59.433Z,97229.13
2018-02-21T19:20:25.476Z,97222.02
2018-02-21T19:22:51.526Z,97223.55
2018-02-21T19:25:17.750Z,97220.90
2018-02-21T19:27:43.790Z,97219.66
2018-02-21T19:30:09.948Z,97221.02
2018-02-21T19:32:35.963Z,97221.75
2018-02-21T19:35:02.265Z,97217.42
2018-02-21T19:37:28.340Z,97218.30
2018-02-21T19:39:54.442Z,97219.66
2018-02-21T19:42:20.596Z,97219.77
2018-02-21T19:44:46.646Z,97220.60
2018-02-21T19:47:12.700Z,97217.59
2018-02-21T19:49:39.002Z,97213.84
2018-02-21T19:52:05.020Z,97217.69
2018-02-21T19:54:31.095Z,97215.39
2018-02-21T19:56:57.177Z,97215.83
2018-02-21T19:59:23.318Z,97215.09
2018-02-21T20:01:49.380Z,97217.34
2018-02-21T20:04:15.447Z,97215.89
2018-02-21T20:06:41.676Z,97220.19
2018-02-21T20:09:07.715Z,97218.20
2018-02-21T20:11:33.889Z,97224.80
2018-02-21T20:13:59.986Z,97223.33
2018-02-21T20:16:26.064Z,97220.41
2018-02-21T20:18:52.232Z,97221.46
2018-02-21T20:21:28.217Z,97226.45
2018-02-21T20:23:54.267Z,97223.39
2018-02-21T20:26:20.340Z,97233.31
2018-02-21T20:28:46.477Z,97229.58
2018-02-21T20:31:12.537Z,97225.09
2018-02-21T20:33:38.618Z,97230.02
2018-02-21T20:36:04.666Z,97233.70
2018-02-21T20:38:33.743Z,97235.88
2018-02-21T20:41:00.317Z,97231.48
2018-02-21T20:43:26.341Z,97228.58
2018-02-21T20:45:52.432Z,97229.91
2018-02-21T20:48:18.486Z,97227.59
2018-02-21T20:50:44.547Z,97232.36
2018-02-21T20:53:10.674Z,97218.38
2018-02-21T20:55:36.739Z,97221.25
2018-02-21T20:58:02.855Z,97220.63
2018-02-21T21:00:29.429Z,97221.48
2018-02-21T21:02:55.494Z,97228.78
2018-02-21T21:05:21.542Z,97225.23
2018-02-21T21:07:47.643Z,97228.42
2018-02-21T21:10:13.652Z,97230.92
2018-02-21T21:12:39.725Z,97234.87
2018-02-21T21:15:05.793Z,97212.81
2018-02-21T21:17:31.842Z,97232.98
2018-02-21T21:19:57.824Z,97225.11
2018-02-21T21:22:23.926Z,97225.56
2018-02-21T21:24:49.971Z,97221.95
2018-02-21T21:27:16.018Z,97223.76
2018-02-21T21:29:43.034Z,97223.81
2018-02-21T21:32:09.074Z,97229.78
2018-02-21T21:34:35.107Z,97229.50
2018-02-21T21:37:01.202Z,97220.52
2018-02-21T21:39:27.245Z,97222.77
2018-02-21T21:42:00.389Z,97225.36
2018-02-21T21:44:26.423Z,97226.09
2018-02-21T21:46:52.473Z,97226.37
2018-02-21T21:49:18.542Z,97221.03
2018-02-21T21:51:44.608Z,97225.90
2018-02-21T21:54:10.674Z,97216.81
2018-02-21T21:56:36.706Z,97218.89
2018-02-21T21:59:02.809Z,97219.00
2018-02-21T22:01:28.866Z,97211.13
2018-02-21T22:03:54.899Z,97218.38
2018-02-21T22:06:20.969Z,97210.53
2018-02-21T22:08:47.009Z,97217.98
2018-02-21T22:11:13.047Z,97213.06
2018-02-21T22:13:39.114Z,97214.16
2018-02-21T22:16:05.181Z,97208.41
2018-02-21T22:18:31.169Z,97212.41
2018-02-21T22:20:57.185Z,97211.39
2018-02-21T22:23:23.209Z,97216.69
2018-02-21T22:25:49.248Z,97212.80
2018-02-21T22:28:15.273Z,97216.80
2018-02-21T22:30:41.362Z,97203.37
2018-02-21T22:33:07.388Z,97202.58
2018-02-21T22:35:33.365Z,97200.72
2018-02-21T22:37:59.465Z,97201.45
2018-02-21T22:40:25.483Z,97206.36
2018-02-21T22:42:51.540Z,97211.19
2018-02-21T22:45:17.606Z,97203.20
2018-02-21T22:50:16.541Z,97213.22
2018-02-21T22:52:43.262Z,97212.53
2018-02-21T22:55:09.288Z,97207.27
2018-02-21T22:57:35.408Z,97206.19
2018-02-21T23:00:01.731Z,97206.08
2018-02-21T23:02:27.786Z,97206.76
2018-02-21T23:04:53.807Z,97210.30
2018-02-21T23:07:19.840Z,97209.00
2018-02-21T23:09:45.870Z,97208.33
2018-02-21T23:12:11.916Z,97204.63
2018-02-21T23:14:37.928Z,97207.27
2018-02-21T23:17:04.017Z,97204.84
2018-02-21T23:19:30.036Z,97205.05
2018-02-21T23:21:56.025Z,97202.59
2018-02-21T23:24:22.085Z,97196.84
2018-02-21T23:26:48.078Z,97202.48
2018-02-21T23:29:14.130Z,97197.23
2018-02-21T23:31:40.138Z,97198.16
2018-02-21T23:34:06.148Z,97198.55
2018-02-21T23:36:32.149Z,97194.44
2018-02-21T23:38:58.146Z,97193.86
2018-02-21T23:41:24.201Z,97193.54
2018-02-21T23:43:50.216Z,97198.92
2018-02-21T23:46:16.230Z,97194.95
2018-02-21T23:48:42.322Z,97201.41
2018-02-21T23:51:08.406Z,97195.55
2018-02-21T23:53:34.430Z,97201.75
2018-02-21T23:56:00.505Z,97195.17
2018-02-21T23:58:26.557Z,97198.09
